Time;durP1;ratioP1;P1;durP2;ratioP2;P2;SDS_P1;SDS_P2;PMS_P1;PMS_P2;Temp;Humidity;BMP_temperature;BMP_pressure;BME280_temperature;BME280_humidity;BME280_pressure;Samples;Min_cycle;Max_cycle;Signal;HPM_P1;HPM_P2
2021/08/23 00:01:06;;;;;;;12.50;8.70;;;;;;;16.31;69.50;93435.38;5110403;28;20050;-83
2021/08/23 00:03:33;;;;;;;9.73;7.13;;;;;;;16.07;70.17;93408.88;5110235;28;20039;-83
2021/08/23 00:06:00;;;;;;;12.55;8.68;;;;;;;16.32;69.42;93434.34;5110399;28;20044;-83
2021/08/23 00:08:29;;;;;;;13.73;9.07;;;;;;;16.21;69.24;93409.31;5110475;28;20538;-84
2021/08/23 00:10:56;;;;;;;15.18;9.23;;;;;;;16.24;69.44;93414.03;5110352;28;20488;-82
2021/08/23 00:13:23;;;;;;;13.68;9.48;;;;;;;16.30;68.77;93418.25;5110785;28;20412;-83
2021/08/23 00:15:54;;;;;;;17.00;9.18;;;;;;;16.48;68.85;93439.72;5110591;28;20047;-85
2021/08/23 00:18:21;;;;;;;13.82;9.55;;;;;;;16.51;68.55;93440.03;5110011;28;20396;-84
2021/08/23 00:20:54;;;;;;;16.85;10.43;;;;;;;16.07;68.77;93386.34;5110328;28;20052;-87
2021/08/23 00:23:23;;;;;;;15.88;9.75;;;;;;;16.15;68.21;93395.50;5110076;28;20088;-86
2021/08/23 00:25:50;;;;;;;13.50;9.80;;;;;;;16.57;68.51;93443.47;5110209;28;20100;-85
2021/08/23 00:28:16;;;;;;;14.57;9.15;;;;;;;16.52;68.28;93446.00;5110162;28;20044;-85
2021/08/23 00:30:44;;;;;;;12.45;9.32;;;;;;;16.38;68.05;93422.25;5109992;28;20043;-84
2021/08/23 00:33:12;;;;;;;14.02;9.85;;;;;;;16.48;68.48;93444.91;5109869;28;20043;-85
2021/08/23 00:35:39;;;;;;;16.27;9.63;;;;;;;16.46;68.73;93449.53;5109569;28;20504;-84
2021/08/23 00:38:07;;;;;;;14.65;8.82;;;;;;;16.44;68.63;93452.41;5109608;28;20055;-84
2021/08/23 00:40:34;;;;;;;14.50;9.35;;;;;;;16.25;68.66;93429.31;5110110;28;20472;-84
2021/08/23 00:43:20;;;;;;;13.90;9.18;;;;;;;16.39;68.75;93447.91;5109613;28;20500;-84
2021/08/23 00:45:47;;;;;;;13.80;9.63;;;;;;;15.61;69.45;93347.63;5108739;28;20396;-84
2021/08/23 00:48:15;;;;;;;14.07;9.40;;;;;;;16.23;69.38;93446.94;5109944;28;20051;-84
2021/08/23 00:50:42;;;;;;;16.42;9.88;;;;;;;16.05;69.89;93439.44;5109841;28;20074;-84
2021/08/23 00:53:09;;;;;;;14.82;9.68;;;;;;;16.09;70.10;93446.50;5109655;28;20047;-82
2021/08/23 00:55:36;;;;;;;24.58;9.95;;;;;;;16.11;69.85;93449.63;5109949;28;20051;-81
2021/08/23 00:58:03;;;;;;;15.00;9.52;;;;;;;16.01;70.30;93444.28;5109361;28;20101;-81
2021/08/23 01:00:31;;;;;;;12.75;9.38;;;;;;;15.89;70.70;93439.94;5109938;28;20052;-81
2021/08/23 01:03:02;;;;;;;12.90;8.93;;;;;;;15.88;70.64;93443.56;5109480;28;20047;-81
2021/08/23 01:05:32;;;;;;;13.55;9.38;;;;;;;15.81;70.73;93447.34;5110241;28;20047;-81
2021/08/23 01:08:02;;;;;;;13.38;9.43;;;;;;;15.82;71.19;93441.13;5110176;28;20469;-82
2021/08/23 01:10:31;;;;;;;14.13;8.88;;;;;;;15.75;71.18;93436.13;5109475;28;20055;-81
2021/08/23 01:12:59;;;;;;;13.00;9.57;;;;;;;15.82;71.06;93438.53;5109571;28;20048;-81
2021/08/23 01:15:26;;;;;;;13.98;9.05;;;;;;;15.76;71.44;93435.09;5109732;28;20051;-81
2021/08/23 01:17:53;;;;;;;16.80;9.30;;;;;;;15.72;71.72;93439.97;5109691;28;20048;-81
2021/08/23 01:20:20;;;;;;;16.60;8.95;;;;;;;15.62;72.01;93430.25;5109243;28;20511;-81
2021/08/23 01:22:50;;;;;;;11.20;8.77;;;;;;;15.27;72.45;93383.88;5109300;28;20508;-81
2021/08/23 01:25:19;;;;;;;13.25;8.70;;;;;;;15.45;72.67;93413.91;5109703;28;20368;-81
2021/08/23 01:27:59;;;;;;;14.88;10.00;;;;;;;15.49;72.19;93417.59;5109605;28;20047;-81
2021/08/23 01:30:32;;;;;;;12.75;9.07;;;;;;;15.27;72.59;93391.63;5109147;28;20039;-81
2021/08/23 01:33:00;;;;;;;12.52;9.10;;;;;;;15.46;72.89;93431.78;5109362;28;20047;-81
2021/08/23 01:35:28;;;;;;;12.75;9.07;;;;;;;15.33;73.24;93424.34;5109577;28;20184;-83
2021/08/23 01:37:55;;;;;;;12.95;9.27;;;;;;;15.42;73.04;93429.91;5109205;28;20501;-82
2021/08/23 01:40:22;;;;;;;12.73;8.52;;;;;;;15.20;74.13;93418.44;5109610;28;20048;-83
2021/08/23 01:42:49;;;;;;;14.50;9.30;;;;;;;15.05;74.85;93407.81;5109087;28;20065;-83
2021/08/23 01:45:16;;;;;;;13.25;9.10;;;;;;;15.17;74.55;93429.25;5109223;28;20044;-82
2021/08/23 01:47:42;;;;;;;14.98;9.32;;;;;;;15.23;74.50;93420.56;5109193;28;20048;-82
2021/08/23 01:50:11;;;;;;;14.35;9.05;;;;;;;15.20;74.21;93410.69;5109045;28;20044;-82
2021/08/23 01:52:38;;;;;;;13.52;8.85;;;;;;;15.27;73.90;93413.09;5109188;28;20587;-82
2021/08/23 01:55:06;;;;;;;14.02;8.52;;;;;;;15.30;73.69;93419.63;5108960;28;20048;-82
2021/08/23 01:57:33;;;;;;;11.65;8.50;;;;;;;15.08;74.55;93407.34;5111457;28;20043;-82
2021/08/23 01:59:59;;;;;;;12.20;8.98;;;;;;;15.03;75.68;93413.22;5112671;28;20058;-82
2021/08/23 02:02:26;;;;;;;16.00;9.43;;;;;;;15.03;75.49;93425.34;5113044;28;20043;-82
2021/08/23 02:04:53;;;;;;;16.52;9.18;;;;;;;15.10;74.99;93419.03;5113099;28;20047;-82
2021/08/23 02:07:21;;;;;;;11.85;9.60;;;;;;;15.03;75.02;93407.25;5112412;28;20069;-81
2021/08/23 02:09:48;;;;;;;13.27;9.70;;;;;;;15.10;75.05;93416.44;5112921;28;20052;-82
2021/08/23 02:12:15;;;;;;;12.20;9.38;;;;;;;15.10;74.96;93415.69;5112928;28;20385;-81
2021/08/23 02:14:42;;;;;;;13.95;8.95;;;;;;;15.11;74.83;93422.41;5112768;27;20040;-81
2021/08/23 02:17:08;;;;;;;11.60;8.82;;;;;;;14.95;75.28;93409.22;5113066;28;20132;-81
2021/08/23 02:19:35;;;;;;;13.98;9.50;;;;;;;14.99;75.88;93411.34;5112826;28;20044;-81
2021/08/23 02:22:03;;;;;;;12.38;9.95;;;;;;;14.94;75.51;93406.84;5112293;28;20492;-81
2021/08/23 02:24:33;;;;;;;16.35;9.35;;;;;;;14.92;76.14;93408.88;5112712;28;20048;-81
2021/08/23 02:26:59;;;;;;;12.80;8.85;;;;;;;14.81;76.05;93398.34;5112005;28;20112;-81
2021/08/23 02:29:26;;;;;;;12.65;10.15;;;;;;;14.94;76.21;93404.25;5112487;28;20043;-81
2021/08/23 02:31:53;;;;;;;14.38;10.23;;;;;;;14.72;76.81;93384.19;5112707;28;20048;-81
2021/08/23 02:34:20;;;;;;;11.90;9.50;;;;;;;14.86;76.16;93394.28;5112299;28;20059;-82
2021/08/23 02:36:47;;;;;;;15.65;9.75;;;;;;;14.99;76.19;93403.59;5112263;28;20511;-81
2021/08/23 02:39:14;;;;;;;12.48;9.52;;;;;;;14.90;76.09;93406.53;5112481;28;20101;-81
2021/08/23 02:41:42;;;;;;;15.57;10.45;;;;;;;14.88;75.85;93403.41;5112173;28;20058;-81
2021/08/23 02:44:09;;;;;;;14.38;10.40;;;;;;;14.80;76.02;93401.97;5112237;28;20062;-81
2021/08/23 02:46:35;;;;;;;14.23;10.65;;;;;;;14.80;76.24;93407.13;5111943;28;20531;-81
2021/08/23 02:49:02;;;;;;;14.68;9.65;;;;;;;14.71;77.34;93403.31;5112097;28;20302;-80
2021/08/23 02:51:29;;;;;;;13.52;10.80;;;;;;;14.51;78.22;93391.56;5112196;28;20092;-80
2021/08/23 02:53:56;;;;;;;13.50;9.82;;;;;;;14.67;77.09;93407.34;5112113;28;20055;-80
2021/08/23 02:56:23;;;;;;;13.13;9.45;;;;;;;14.68;77.29;93407.13;5111890;28;20408;-80
2021/08/23 02:58:51;;;;;;;13.80;10.45;;;;;;;14.69;77.48;93411.28;5111989;28;20052;-80
2021/08/23 03:01:18;;;;;;;14.05;9.40;;;;;;;14.55;77.49;93384.16;5112045;28;20047;-80
2021/08/23 03:03:44;;;;;;;12.90;10.05;;;;;;;14.70;77.85;93412.88;5112131;28;20047;-82
2021/08/23 03:06:12;;;;;;;12.80;9.40;;;;;;;14.57;77.76;93401.00;5111626;28;20043;-82
2021/08/23 03:08:39;;;;;;;17.90;9.57;;;;;;;14.66;77.33;93406.59;5110524;28;20089;-81
2021/08/23 03:11:10;;;;;;;14.77;10.27;;;;;;;14.63;78.25;93414.78;5111777;28;20408;-81
2021/08/23 03:13:38;;;;;;;15.98;10.70;;;;;;;14.55;78.31;93422.91;5111762;28;20104;-80
2021/08/23 03:16:06;;;;;;;16.00;10.90;;;;;;;14.66;77.44;93409.19;5111771;28;20475;-81
2021/08/23 03:18:33;;;;;;;16.45;10.82;;;;;;;14.67;78.40;93425.44;5111684;28;20043;-82
2021/08/23 03:21:00;;;;;;;15.13;11.13;;;;;;;14.65;77.63;93409.41;5111476;28;20450;-82
2021/08/23 03:23:28;;;;;;;14.10;10.52;;;;;;;14.67;77.70;93415.91;5111128;28;20093;-81
2021/08/23 03:25:54;;;;;;;15.30;9.85;;;;;;;14.73;77.30;93423.75;5111066;28;20052;-81
2021/08/23 03:28:21;;;;;;;13.77;10.70;;;;;;;14.70;77.18;93427.59;5111011;28;20044;-81
2021/08/23 03:30:48;;;;;;;21.27;10.02;;;;;;;14.60;77.18;93414.47;5110919;28;20050;-82
2021/08/23 03:33:17;;;;;;;14.23;9.77;;;;;;;14.63;77.54;93432.13;5111213;28;20055;-82
2021/08/23 03:35:44;;;;;;;12.30;10.32;;;;;;;14.60;77.21;93425.59;5111099;28;20040;-82
2021/08/23 03:38:11;;;;;;;24.35;10.55;;;;;;;14.57;77.49;93431.22;5110992;28;20079;-82
2021/08/23 03:40:38;;;;;;;16.73;11.40;;;;;;;14.49;78.17;93436.75;5111169;28;20048;-81
2021/08/23 03:43:05;;;;;;;18.35;10.27;;;;;;;14.50;78.06;93433.16;5111080;28;20043;-82
2021/08/23 03:45:32;;;;;;;19.85;10.38;;;;;;;14.50;77.77;93436.53;5111050;28;20044;-83
2021/08/23 03:47:58;;;;;;;13.95;9.98;;;;;;;14.49;77.63;93434.94;5110611;28;20058;-83
2021/08/23 03:50:27;;;;;;;15.68;10.55;;;;;;;14.37;77.84;93419.47;5110695;28;20476;-81
2021/08/23 03:52:54;;;;;;;14.73;10.07;;;;;;;14.48;78.14;93435.97;5110854;28;20046;-83
2021/08/23 03:55:22;;;;;;;20.65;9.82;;;;;;;14.34;78.27;93424.31;5110333;28;20044;-83
2021/08/23 03:57:49;;;;;;;13.68;10.02;;;;;;;14.40;78.30;93449.25;5110855;28;20067;-84
2021/08/23 04:00:16;;;;;;;14.73;9.85;;;;;;;14.32;78.24;93439.25;5110427;28;20423;-83
2021/08/23 04:02:44;;;;;;;18.38;9.23;;;;;;;14.35;78.73;93449.91;5106809;28;20146;-83
2021/08/23 04:05:11;;;;;;;13.40;9.68;;;;;;;14.36;78.92;93440.38;5108391;28;20043;-83
2021/08/23 04:07:39;;;;;;;13.65;9.02;;;;;;;14.27;78.88;93440.72;5109656;28;20051;-83
2021/08/23 04:10:07;;;;;;;16.65;9.80;;;;;;;14.39;78.57;93447.66;5110548;28;20051;-82
2021/08/23 04:12:34;;;;;;;17.50;10.45;;;;;;;14.39;78.83;93442.50;5110184;28;20058;-83
2021/08/23 04:15:01;;;;;;;17.58;10.63;;;;;;;14.29;78.99;93432.72;5110294;28;20051;-83
2021/08/23 04:17:28;;;;;;;32.70;12.10;;;;;;;14.41;78.80;93451.59;5110742;28;20055;-82
2021/08/23 04:19:55;;;;;;;22.63;11.57;;;;;;;14.47;78.48;93449.91;5110163;28;20070;-82
2021/08/23 04:22:21;;;;;;;34.55;11.98;;;;;;;14.53;78.24;93449.00;5109892;27;20044;-83
2021/08/23 04:24:50;;;;;;;30.98;12.23;;;;;;;14.60;77.90;93453.25;5110267;28;20055;-83
2021/08/23 04:27:16;;;;;;;23.85;10.82;;;;;;;14.61;77.79;93453.03;5110203;28;20047;-83
2021/08/23 04:29:43;;;;;;;32.47;12.65;;;;;;;14.64;77.98;93444.81;5109972;28;20051;-82
2021/08/23 04:32:10;;;;;;;26.27;11.55;;;;;;;14.65;77.33;93446.38;5109800;28;20051;-81
2021/08/23 04:34:37;;;;;;;22.10;11.82;;;;;;;14.75;77.83;93451.00;5110162;28;20051;-81
2021/08/23 04:37:04;;;;;;;24.33;12.05;;;;;;;14.80;77.55;93448.50;5110172;28;20047;-82
2021/08/23 04:39:32;;;;;;;23.58;11.75;;;;;;;14.77;77.98;93451.53;5110247;28;20075;-83
2021/08/23 04:42:00;;;;;;;21.55;11.88;;;;;;;14.79;77.92;93435.81;5109987;28;20528;-81
2021/08/23 04:44:28;;;;;;;19.27;10.98;;;;;;;14.81;78.00;93450.06;5110014;28;20466;-81
2021/08/23 04:46:55;;;;;;;28.05;13.40;;;;;;;14.75;77.82;93432.09;5109824;28;20051;-82
2021/08/23 04:49:22;;;;;;;29.20;12.80;;;;;;;14.92;77.72;93445.09;5109810;28;20411;-82
2021/08/23 04:51:48;;;;;;;19.67;11.45;;;;;;;14.97;77.45;93442.59;5106688;28;20043;-82
2021/08/23 04:54:15;;;;;;;20.63;10.23;;;;;;;15.02;77.43;93439.31;5108054;28;20043;-82
2021/08/23 04:56:42;;;;;;;22.08;11.82;;;;;;;15.08;77.53;93441.78;5109169;28;20055;-82
2021/08/23 04:59:10;;;;;;;24.88;12.27;;;;;;;15.14;77.29;93450.41;5110336;28;20054;-82
2021/08/23 05:01:37;;;;;;;22.80;13.23;;;;;;;15.22;77.37;93447.44;5109965;28;20055;-82
2021/08/23 05:04:04;;;;;;;23.02;11.98;;;;;;;15.20;78.23;93441.72;5109487;28;20574;-82
2021/08/23 05:06:31;;;;;;;15.52;11.10;;;;;;;14.72;81.64;93446.25;5109597;28;20039;-82
2021/08/23 05:08:58;;;;;;;17.38;11.60;;;;;;;14.73;82.50;93442.66;5109345;28;20511;-81
2021/08/23 05:11:25;;;;;;;16.00;12.35;;;;;;;14.67;83.12;93428.03;5109656;28;20051;-82
2021/08/23 05:13:52;;;;;;;19.80;11.75;;;;;;;14.73;82.53;93445.25;5109653;28;20043;-82
2021/08/23 05:16:20;;;;;;;20.92;12.80;;;;;;;14.74;80.70;93408.03;5109235;28;20460;-82
2021/08/23 05:18:47;;;;;;;13.10;10.32;;;;;;;15.08;82.72;93446.16;5109516;28;20488;-82
2021/08/23 05:21:14;;;;;;;18.50;11.48;;;;;;;15.13;80.45;93443.66;5109377;28;20051;-82
2021/08/23 05:23:41;;;;;;;15.77;10.35;;;;;;;15.03;81.39;93405.47;5108897;28;20092;-82
2021/08/23 05:26:09;;;;;;;13.90;9.48;;;;;;;15.38;81.55;93436.56;5109215;28;20488;-82
2021/08/23 05:28:36;;;;;;;11.85;9.43;;;;;;;15.40;81.14;93431.94;5109304;28;20047;-83
2021/08/23 05:31:02;;;;;;;13.05;10.32;;;;;;;15.41;81.22;93433.53;5109506;28;20055;-82
2021/08/23 05:33:31;;;;;;;16.27;9.75;;;;;;;15.47;80.84;93433.34;5113144;28;20043;-83
2021/08/23 05:35:58;;;;;;;15.60;9.60;;;;;;;15.56;80.39;93433.75;5113141;28;20044;-82
2021/08/23 05:38:24;;;;;;;14.75;10.93;;;;;;;15.76;79.48;93437.69;5113369;28;20109;-82
2021/08/23 05:40:51;;;;;;;17.15;11.80;;;;;;;15.93;78.69;93434.34;5113416;27;20040;-83
2021/08/23 05:43:21;;;;;;;27.60;15.63;;;;;;;16.01;78.55;93437.31;5113279;28;20059;-85
2021/08/23 05:45:48;;;;;;;26.17;16.70;;;;;;;16.18;78.32;93436.50;5113666;28;20059;-85
2021/08/23 05:48:16;;;;;;;25.17;15.43;;;;;;;16.28;78.13;93433.25;5113254;28;20048;-87
2021/08/23 05:50:44;;;;;;;25.73;16.48;;;;;;;16.48;77.44;93430.13;5113277;28;20047;-84
2021/08/23 05:53:11;;;;;;;26.88;14.88;;;;;;;16.77;76.47;93427.38;5112956;28;20517;-84
2021/08/23 05:55:38;;;;;;;28.60;16.52;;;;;;;16.98;75.24;93437.94;5113000;28;20059;-84
2021/08/23 05:58:05;;;;;;;31.35;18.38;;;;;;;17.21;74.49;93431.72;5113263;28;20043;-85
2021/08/23 06:00:31;;;;;;;45.25;26.42;;;;;;;17.03;72.83;93396.50;5112939;28;20048;-87
2021/08/23 06:02:58;;;;;;;45.83;23.75;;;;;;;17.34;71.62;93403.78;5112764;28;20355;-85
2021/08/23 06:05:25;;;;;;;40.13;23.08;;;;;;;17.61;70.97;93387.38;5112614;28;20393;-88
2021/08/23 06:07:53;;;;;;;39.42;22.17;;;;;;;18.01;70.72;93432.09;5112599;28;20055;-85
2021/08/23 06:10:20;;;;;;;56.80;28.10;;;;;;;18.09;69.28;93429.03;5112381;28;20047;-85
2021/08/23 06:12:47;;;;;;;52.03;30.13;;;;;;;18.24;68.94;93404.94;5108191;28;20517;-85
2021/08/23 06:15:14;;;;;;;62.05;32.83;;;;;;;18.64;66.93;93415.78;5111059;28;20049;-85
2021/08/23 06:17:41;;;;;;;55.53;29.60;;;;;;;18.77;66.95;93427.53;5112581;28;20039;-84
2021/08/23 06:20:09;;;;;;;53.28;28.05;;;;;;;19.03;66.01;93398.19;5113085;28;20089;-84
2021/08/23 06:22:37;;;;;;;52.20;25.52;;;;;;;19.26;64.99;93398.78;5112888;28;20055;-84
2021/08/23 06:25:07;;;;;;;44.00;22.60;;;;;;;19.62;64.59;93423.03;5113841;28;20154;-84
2021/08/23 06:27:34;;;;;;;42.60;21.58;;;;;;;19.88;62.45;93419.63;5111994;28;20047;-84
2021/08/23 06:30:02;;;;;;;38.85;18.10;;;;;;;20.11;59.20;93428.75;5112174;28;20070;-85
2021/08/23 06:32:29;;;;;;;43.15;19.67;;;;;;;20.25;60.10;93417.75;5112538;28;20056;-86
2021/08/23 06:34:56;;;;;;;40.88;18.20;;;;;;;20.55;58.36;93409.06;5112415;28;20092;-86
2021/08/23 06:37:23;;;;;;;49.40;18.48;;;;;;;20.80;56.24;93394.34;5111967;28;20044;-86
2021/08/23 06:39:50;;;;;;;43.20;17.63;;;;;;;21.30;56.02;93434.56;5112327;28;20051;-86
2021/08/23 06:42:18;;;;;;;43.83;17.20;;;;;;;21.34;54.40;93407.63;5111126;28;20054;-86
2021/08/23 06:44:45;;;;;;;46.38;19.35;;;;;;;21.63;53.78;93399.03;5111357;28;20496;-86
2021/08/23 06:47:13;;;;;;;46.13;20.83;;;;;;;21.61;53.53;93416.03;5111723;28;20051;-86
2021/08/23 06:49:40;;;;;;;51.80;20.50;;;;;;;21.39;54.63;93434.78;5111715;28;20148;-87
2021/08/23 06:52:07;;;;;;;40.25;19.48;;;;;;;21.45;54.93;93437.09;5111995;28;20047;-88
2021/08/23 06:54:34;;;;;;;53.75;20.60;;;;;;;21.36;54.24;93389.06;5111745;28;20051;-89
2021/08/23 06:57:02;;;;;;;53.03;19.30;;;;;;;22.01;53.82;93432.50;5111900;28;20050;-87
2021/08/23 06:59:31;;;;;;;45.60;19.13;;;;;;;21.96;51.96;93376.81;5107525;28;20043;-88
2021/08/23 07:01:58;;;;;;;42.30;18.08;;;;;;;22.31;52.46;93405.50;5109500;28;20044;-86
2021/08/23 07:04:24;;;;;;;47.78;18.35;;;;;;;22.13;51.81;93373.78;5110901;28;20043;-87
2021/08/23 07:06:51;;;;;;;44.08;18.00;;;;;;;23.00;51.13;93425.41;5111621;28;20048;-88
2021/08/23 07:09:18;;;;;;;41.08;16.20;;;;;;;23.20;48.89;93401.53;5111489;28;20048;-87
2021/08/23 07:12:01;;;;;;;38.28;16.55;;;;;;;22.91;50.08;93399.06;5111304;28;21172;-87
2021/08/23 07:14:28;;;;;;;36.15;16.33;;;;;;;23.11;49.77;93366.56;5111450;28;20047;-88
2021/08/23 07:16:56;;;;;;;31.10;13.93;;;;;;;23.51;48.68;93361.00;5111027;28;20047;-89
2021/08/23 07:19:23;;;;;;;31.02;13.15;;;;;;;23.18;49.32;93408.13;5111018;28;20061;-87
2021/08/23 07:21:50;;;;;;;30.25;14.48;;;;;;;23.64;48.11;93406.69;5111048;28;20043;-88
2021/08/23 07:24:16;;;;;;;29.60;13.98;;;;;;;23.08;47.66;93294.56;5111086;28;20518;-88
2021/08/23 07:26:43;;;;;;;27.42;12.40;;;;;;;23.74;47.25;93351.44;5110811;28;20055;-88
2021/08/23 07:29:13;;;;;;;26.05;12.32;;;;;;;23.56;46.23;93290.13;5111001;28;20131;-89
2021/08/23 07:31:40;;;;;;;25.30;11.63;;;;;;;24.10;46.13;93334.31;5111136;28;20464;-89
2021/08/23 07:34:08;;;;;;;23.65;12.70;;;;;;;24.39;44.68;93348.97;5111376;28;20050;-88
2021/08/23 07:36:35;;;;;;;25.70;10.95;;;;;;;24.49;45.22;93331.47;5111940;28;20044;-89
2021/08/23 07:39:03;;;;;;;28.02;11.00;;;;;;;25.15;44.50;93388.97;5111236;28;20541;-88
2021/08/23 07:41:30;;;;;;;21.25;10.85;;;;;;;24.90;44.81;93364.03;5111369;28;20484;-89
2021/08/23 07:43:58;;;;;;;20.50;10.85;;;;;;;25.47;43.95;93373.25;5111653;28;20057;-90
2021/08/23 07:46:25;;;;;;;26.20;11.10;;;;;;;25.59;43.82;93391.16;5111522;28;20070;-89
2021/08/23 07:48:52;;;;;;;21.95;10.85;;;;;;;25.38;42.73;93338.22;5111414;28;20043;-88
2021/08/23 07:51:20;;;;;;;29.60;11.23;;;;;;;26.14;43.22;93387.41;5111240;28;20139;-85
2021/08/23 07:53:47;;;;;;;25.70;10.32;;;;;;;26.04;41.74;93366.63;5111262;28;20055;-85
2021/08/23 07:56:14;;;;;;;22.02;10.68;;;;;;;26.42;41.80;93360.91;5111487;28;20446;-85
2021/08/23 07:58:41;;;;;;;24.15;9.23;;;;;;;26.94;41.61;93385.81;5111003;28;20500;-85
2021/08/23 08:01:08;;;;;;;21.60;8.73;;;;;;;27.08;41.07;93371.72;5108202;28;20051;-85
2021/08/23 08:03:35;;;;;;;18.27;8.02;;;;;;;27.07;40.69;93320.06;5109234;28;20292;-86
2021/08/23 08:06:02;;;;;;;19.55;9.27;;;;;;;27.81;38.58;93374.78;5110144;28;20059;-85
2021/08/23 08:08:30;;;;;;;17.45;9.68;;;;;;;27.40;37.94;93366.28;5110578;28;20054;-86
2021/08/23 08:10:57;;;;;;;12.68;8.73;;;;;;;27.19;38.40;93364.28;5110786;28;20051;-86
2021/08/23 08:13:25;;;;;;;17.70;8.18;;;;;;;27.41;38.37;93359.91;5110810;28;20052;-86
2021/08/23 08:15:52;;;;;;;15.25;8.20;;;;;;;27.79;38.17;93369.81;5107699;28;20066;-88
2021/08/23 08:18:19;;;;;;;18.00;7.88;;;;;;;28.01;37.02;93366.16;5108390;28;20058;-86
2021/08/23 08:20:46;;;;;;;18.83;8.35;;;;;;;28.37;37.84;93369.44;5110351;28;20047;-87
2021/08/23 08:23:13;;;;;;;14.48;8.05;;;;;;;28.61;37.57;93368.06;5110518;28;20054;-85
2021/08/23 08:25:41;;;;;;;16.75;7.85;;;;;;;28.60;36.51;93323.50;5110177;28;20051;-86
2021/08/23 08:28:08;;;;;;;17.65;8.02;;;;;;;28.88;36.62;93313.19;5110676;28;20051;-86
2021/08/23 08:30:35;;;;;;;14.88;7.47;;;;;;;29.26;34.86;93339.81;5110492;28;20051;-88
2021/08/23 08:33:02;;;;;;;17.35;7.63;;;;;;;29.58;35.00;93364.75;5110215;28;20051;-86
2021/08/23 08:35:29;;;;;;;14.77;7.22;;;;;;;29.69;32.72;93361.69;5110379;28;20489;-86
2021/08/23 08:37:56;;;;;;;14.65;7.50;;;;;;;28.52;34.08;93311.88;5110536;28;20065;-86
2021/08/23 08:40:24;;;;;;;14.52;7.90;;;;;;;28.77;35.29;93333.16;5110484;28;20059;-86
2021/08/23 08:42:52;;;;;;;20.70;8.25;;;;;;;29.15;35.63;93324.34;5110570;28;20056;-86
2021/08/23 08:45:20;;;;;;;11.30;7.25;;;;;;;29.47;33.66;93366.22;5110009;28;20365;-86
2021/08/23 08:47:48;;;;;;;18.50;9.32;;;;;;;29.50;34.96;93328.56;5110536;28;20047;-85
2021/08/23 08:50:17;;;;;;;28.30;11.38;;;;;;;29.79;34.07;93329.50;5110041;28;20059;-86
2021/08/23 08:52:46;;;;;;;14.75;7.53;;;;;;;30.16;33.57;93346.59;5109947;28;20054;-86
2021/08/23 08:55:13;;;;;;;11.88;5.75;;;;;;;29.93;32.64;93272.81;5110419;28;20043;-87
2021/08/23 08:57:40;;;;;;;11.75;6.47;;;;;;;30.12;32.09;93275.72;5110245;28;20051;-88
2021/08/23 09:00:10;;;;;;;12.27;6.75;;;;;;;30.63;31.43;93298.38;5110415;28;20452;-88
2021/08/23 09:02:37;;;;;;;12.60;6.53;;;;;;;31.21;31.56;93349.63;5106156;28;20047;-87
2021/08/23 09:05:06;;;;;;;12.75;6.47;;;;;;;30.78;31.48;93347.31;5109197;28;20079;-91
2021/08/23 09:07:42;;;;;;;10.32;6.85;;;;;;;30.58;31.41;93345.56;5110077;28;20051;-89
2021/08/23 09:10:20;;;;;;;11.68;6.43;;;;;;;30.23;31.95;93341.50;5110463;28;20400;-89
2021/08/23 09:12:47;;;;;;;12.45;5.60;;;;;;;30.14;31.30;93317.78;5110382;28;20048;-89
2021/08/23 09:15:18;;;;;;;13.05;6.00;;;;;;;30.57;31.49;93293.63;5110390;28;20551;-88
2021/08/23 09:17:46;;;;;;;13.63;6.63;;;;;;;31.04;31.43;93319.63;5115455;28;20044;-88
2021/08/23 09:20:14;;;;;;;11.02;6.40;;;;;;;29.72;32.12;93324.75;5120436;28;20048;-87
2021/08/23 09:22:41;;;;;;;14.60;6.38;;;;;;;29.82;32.93;93283.06;5104961;28;20048;-87
2021/08/23 09:25:09;;;;;;;13.10;6.40;;;;;;;28.79;33.73;93328.34;5098173;28;20484;-91
2021/08/23 09:27:37;;;;;;;13.40;6.70;;;;;;;29.62;33.23;93325.16;5098537;28;20488;-88
2021/08/23 09:30:06;;;;;;;11.70;7.03;;;;;;;29.97;32.82;93279.00;5095530;28;20093;-87
2021/08/23 09:32:35;;;;;;;11.07;6.28;;;;;;;30.47;31.85;93285.06;5099420;28;20044;-88
2021/08/23 09:35:03;;;;;;;12.05;6.28;;;;;;;29.45;31.83;93259.94;5099678;28;20059;-86
2021/08/23 09:37:31;;;;;;;11.77;5.97;;;;;;;28.50;33.85;93264.63;5098736;28;20047;-89
2021/08/23 09:40:08;;;;;;;13.25;6.80;;;;;;;28.42;33.87;93291.91;5098223;28;20044;-89
2021/08/23 09:42:35;;;;;;;11.07;6.68;;;;;;;29.11;32.91;93298.88;5099473;28;20048;-88
2021/08/23 09:45:02;;;;;;;12.40;6.53;;;;;;;29.27;32.73;93262.78;5097936;28;20059;-90
2021/08/23 09:47:31;;;;;;;11.40;6.90;;;;;;;29.39;32.78;93253.31;5099802;28;20040;-89
2021/08/23 09:49:59;;;;;;;10.43;5.70;;;;;;;29.80;32.32;93304.56;5099705;28;20436;-88
2021/08/23 09:52:31;;;;;;;15.50;6.13;;;;;;;29.68;32.32;93256.91;5098087;28;20412;-87
2021/08/23 09:55:02;;;;;;;11.90;6.22;;;;;;;29.76;31.48;93268.50;5098849;28;20048;-90
2021/08/23 09:57:30;;;;;;;12.45;5.90;;;;;;;29.59;31.96;93271.03;5096200;28;20070;-86
2021/08/23 09:59:58;;;;;;;10.15;5.38;;;;;;;29.72;32.19;93303.56;5095681;28;20055;-86
2021/08/23 10:02:28;;;;;;;11.25;5.55;;;;;;;30.42;31.29;93303.06;5109628;28;20056;-87
2021/08/23 10:04:58;;;;;;;9.05;5.65;;;;;;;30.68;31.30;93305.31;5109623;28;20488;-86
2021/08/23 10:07:27;;;;;;;10.00;5.18;;;;;;;30.56;29.66;93215.25;5095802;28;20056;-86
2021/08/23 10:09:55;;;;;;;9.07;5.47;;;;;;;31.30;29.87;93285.84;5089007;28;20135;-87
2021/08/23 10:12:23;;;;;;;8.68;5.55;;;;;;;30.78;29.71;93241.25;5089314;28;20048;-86
2021/08/23 10:14:50;;;;;;;8.57;5.35;;;;;;;31.49;31.24;93274.56;5089186;28;20400;-86
2021/08/23 10:17:18;;;;;;;10.27;5.25;;;;;;;30.10;31.90;93240.84;5090346;28;20055;-87
2021/08/23 10:19:45;;;;;;;7.85;5.50;;;;;;;30.03;32.29;93275.00;5112973;28;20046;-87
2021/08/23 10:22:14;;;;;;;8.15;5.20;;;;;;;30.98;32.35;93280.41;5113101;28;20055;-84
2021/08/23 10:24:42;;;;;;;8.90;5.70;;;;;;;30.49;31.24;93290.00;5113219;28;20054;-86
2021/08/23 10:27:10;;;;;;;8.07;5.50;;;;;;;30.76;31.26;93282.47;5112931;28;20546;-86
2021/08/23 10:29:41;;;;;;;9.15;5.45;;;;;;;30.47;30.58;93286.94;5113076;28;20105;-86
2021/08/23 10:32:10;;;;;;;10.40;5.30;;;;;;;30.44;31.48;93274.38;5113236;28;20482;-87
2021/08/23 10:34:38;;;;;;;8.55;5.40;;;;;;;30.58;30.55;93276.66;5112867;28;20104;-86
2021/08/23 10:37:16;;;;;;;6.60;5.53;;;;;;;30.50;31.13;93270.38;5109220;28;20047;-86
2021/08/23 10:39:45;;;;;;;10.43;5.25;;;;;;;30.92;31.21;93259.44;5110725;28;20054;-86
2021/08/23 10:42:13;;;;;;;11.73;4.97;;;;;;;31.25;29.00;93256.84;5111712;28;20128;-86
2021/08/23 10:44:41;;;;;;;8.98;5.05;;;;;;;31.78;28.64;93255.88;5112392;28;20090;-85
2021/08/23 10:47:10;;;;;;;6.60;5.82;;;;;;;30.50;30.26;93222.66;5112862;28;20059;-85
2021/08/23 10:49:44;;;;;;;8.38;4.90;;;;;;;31.09;30.01;93246.97;5112712;28;20075;-84
2021/08/23 10:52:15;;;;;;;7.80;4.57;;;;;;;30.09;30.84;93249.09;5112701;28;20047;-84
2021/08/23 10:54:46;;;;;;;6.90;5.70;;;;;;;29.00;31.84;93190.06;5111999;28;20511;-87
2021/08/23 10:57:21;;;;;;;8.23;5.82;;;;;;;29.85;31.37;93176.53;5112493;28;20056;-87
2021/08/23 11:00:10;;;;;;;5.65;5.05;;;;;;;29.70;32.06;93247.53;5112468;28;20048;-85
2021/08/23 11:02:38;;;;;;;9.68;5.50;;;;;;;29.93;31.98;93238.38;5112492;28;20059;-85
2021/08/23 11:05:09;;;;;;;8.25;5.43;;;;;;;30.35;30.48;93179.84;5112625;28;20103;-86
2021/08/23 11:07:38;;;;;;;9.27;5.20;;;;;;;30.65;31.81;93206.03;5113108;28;20051;-84
2021/08/23 11:10:10;;;;;;;6.90;4.82;;;;;;;31.46;30.74;93208.88;5112259;28;20040;-85
2021/08/23 11:12:44;;;;;;;6.85;5.25;;;;;;;31.64;29.70;93224.44;5112314;28;20047;-86
2021/08/23 11:15:16;;;;;;;6.05;5.10;;;;;;;31.89;28.77;93216.34;5112344;28;20055;-86
2021/08/23 11:17:48;;;;;;;9.85;5.07;;;;;;;32.34;27.91;93225.66;5112108;28;20059;-86
2021/08/23 11:20:20;;;;;;;5.60;4.63;;;;;;;32.45;28.55;93183.38;5099232;28;20058;-85
2021/08/23 11:23:02;;;;;;;9.25;5.38;;;;;;;32.84;27.32;93177.25;5092115;28;20104;-85
2021/08/23 11:25:34;;;;;;;7.15;5.10;;;;;;;32.57;26.96;93169.16;5112299;28;20051;-85